createdAt,value
2023-04-15T00:00:19.149Z,99525.59
2023-04-15T00:03:23.806Z,99522.09
2023-04-15T00:06:26.684Z,99524.19
2023-04-15T00:09:29.787Z,99519.72
2023-04-15T00:12:32.568Z,99528.53
2023-04-15T00:15:35.330Z,99529.25
2023-04-15T00:18:39.575Z,99535.44
2023-04-15T00:21:42.316Z,99537.78
2023-04-15T00:24:45.135Z,99534.00
2023-04-15T00:27:47.913Z,99543.69
2023-04-15T00:30:51.359Z,99534.13
2023-04-15T00:33:55.488Z,99530.34
2023-04-15T00:36:58.600Z,99542.38
2023-04-15T00:40:01.433Z,99543.09
2023-04-15T00:43:04.353Z,99540.88
2023-04-15T00:46:07.606Z,99547.00
2023-04-15T00:49:11.946Z,99552.34
2023-04-15T00:52:14.727Z,99558.06
2023-04-15T00:55:17.545Z,99549.69
2023-04-15T00:58:20.337Z,99550.38
2023-04-15T01:01:23.439Z,99552.75
2023-04-15T01:04:27.984Z,99551.06
2023-04-15T01:07:31.010Z,99555.16
2023-04-15T01:10:34.421Z,99561.72
2023-04-15T01:13:38.098Z,99564.38
2023-04-15T01:16:41.216Z,99571.56
2023-04-15T01:19:45.373Z,99561.44
2023-04-15T01:22:48.212Z,99568.19
2023-04-15T01:25:52.806Z,99573.75
2023-04-15T01:28:56.523Z,99572.22
2023-04-15T01:31:59.419Z,99581.34
2023-04-15T01:35:02.303Z,99586.59
2023-04-15T01:38:06.503Z,99582.94
2023-04-15T01:41:10.753Z,99583.22
2023-04-15T01:44:13.536Z,99592.59
2023-04-15T01:47:16.359Z,99594.72
2023-04-15T01:50:20.493Z,99585.91
2023-04-15T01:53:23.424Z,99595.13
2023-04-15T01:56:27.699Z,99596.13
2023-04-15T01:59:31.403Z,99596.13
2023-04-15T02:02:34.641Z,99590.94
2023-04-15T02:05:37.462Z,99596.13
2023-04-15T02:08:40.324Z,99605.31
2023-04-15T02:11:44.420Z,99606.44
2023-04-15T02:14:47.298Z,99600.00
2023-04-15T02:17:51.216Z,99599.88
2023-04-15T02:20:54.096Z,99600.72
2023-04-15T02:23:57.346Z,99602.53
2023-04-15T02:27:01.884Z,99595.28
2023-04-15T02:30:04.807Z,99618.53
2023-04-15T02:33:07.960Z,99621.44
2023-04-15T02:36:12.535Z,99624.69
2023-04-15T02:39:16.963Z,99621.31
2023-04-15T02:42:21.751Z,99625.94
2023-04-15T02:45:27.626Z,99628.59
2023-04-15T02:48:30.467Z,99628.03
2023-04-15T02:51:33.208Z,99631.25
2023-04-15T02:54:36.073Z,99631.41
2023-04-15T02:57:41.248Z,99635.88
2023-04-15T03:00:44.149Z,99636.28
2023-04-15T03:03:47.061Z,99638.09
2023-04-15T03:06:49.890Z,99642.19
2023-04-15T03:09:52.701Z,99645.97
2023-04-15T03:12:56.856Z,99637.28
2023-04-15T03:15:59.579Z,99636.56
2023-04-15T03:19:02.613Z,99644.56
2023-04-15T03:22:05.681Z,99653.66
2023-04-15T03:25:08.651Z,99648.31
2023-04-15T03:28:13.382Z,99643.72
2023-04-15T03:31:16.221Z,99652.28
2023-04-15T03:34:19.118Z,99650.59
2023-04-15T03:37:21.850Z,99658.44
2023-04-15T03:40:24.658Z,99662.22
2023-04-15T03:43:28.798Z,99661.38
2023-04-15T03:46:31.588Z,99668.09
2023-04-15T03:49:34.379Z,99672.88
2023-04-15T03:52:37.094Z,99672.72
2023-04-15T03:55:40.094Z,99672.28
2023-04-15T03:58:44.254Z,99677.63
2023-04-15T04:01:47.169Z,99681.16
2023-04-15T04:04:50.052Z,99680.16
2023-04-15T04:07:52.836Z,99695.31
2023-04-15T04:10:55.572Z,99682.94
2023-04-15T04:13:59.735Z,99689.13
2023-04-15T04:17:02.522Z,99686.72
2023-04-15T04:20:05.805Z,99687.84
2023-04-15T04:23:08.570Z,99687.13
2023-04-15T04:26:11.362Z,99695.84
2023-04-15T04:29:15.699Z,99703.69
2023-04-15T04:32:18.494Z,99699.50
2023-04-15T04:35:21.978Z,99697.78
2023-04-15T04:38:24.815Z,99697.78
2023-04-15T04:41:27.650Z,99694.84
2023-04-15T04:44:31.770Z,99692.34
2023-04-15T04:47:34.595Z,99709.16
2023-04-15T04:50:37.780Z,99700.19
2023-04-15T04:53:40.818Z,99712.38
2023-04-15T04:56:43.616Z,99703.53
2023-04-15T04:59:47.801Z,99704.81
2023-04-15T05:02:50.707Z,99705.50
2023-04-15T05:05:53.549Z,99706.50
2023-04-15T05:08:56.812Z,99702.25
2023-04-15T05:11:59.586Z,99713.75
2023-04-15T05:15:03.783Z,99708.44
2023-04-15T05:18:06.654Z,99706.59
2023-04-15T05:21:09.453Z,99722.47
2023-04-15T05:24:12.146Z,99718.97
2023-04-15T05:27:14.880Z,99718.13
2023-04-15T05:30:19.122Z,99716.69
2023-04-15T05:33:21.917Z,99715.25
2023-04-15T05:36:24.711Z,99719.63
2023-04-15T05:39:27.770Z,99728.31
2023-04-15T05:42:30.585Z,99738.97
2023-04-15T05:45:34.710Z,99736.19
2023-04-15T05:48:37.437Z,99746.81
2023-04-15T05:51:40.254Z,99749.50
2023-04-15T05:54:43.032Z,99748.50
2023-04-15T05:57:45.780Z,99760.13
2023-04-15T06:00:50.048Z,99757.75
2023-04-15T06:03:52.968Z,99767.16
2023-04-15T06:06:56.235Z,99770.50
2023-04-15T06:09:59.061Z,99777.78
2023-04-15T06:13:01.836Z,99792.47
2023-04-15T06:16:06.304Z,99795.03
2023-04-15T06:19:09.093Z,99804.28
2023-04-15T06:22:11.920Z,99799.50
2023-04-15T06:25:14.861Z,99801.31
2023-04-15T06:28:17.635Z,99804.69
2023-04-15T06:31:21.920Z,99802.47
2023-04-15T06:34:24.707Z,99821.09
2023-04-15T06:37:27.431Z,99806.94
2023-04-15T06:40:30.279Z,99820.69
2023-04-15T06:43:33.095Z,99816.34
2023-04-15T06:46:37.186Z,99822.59
2023-04-15T06:49:40.589Z,99834.84
2023-04-15T06:52:43.391Z,99844.03
2023-04-15T06:55:46.121Z,99837.75
2023-04-15T06:58:48.927Z,99849.50
2023-04-15T07:01:53.145Z,99859.78
2023-04-15T07:04:57.079Z,99860.84
2023-04-15T07:08:00.216Z,99867.16
2023-04-15T07:11:03.170Z,99865.09
2023-04-15T07:14:06.783Z,99870.81
2023-04-15T07:17:12.095Z,99878.78
2023-04-15T07:20:14.847Z,99877.69
2023-04-15T07:23:17.685Z,99872.34
2023-04-15T07:26:20.470Z,99867.03
2023-04-15T07:29:23.268Z,99863.66
2023-04-15T07:32:27.446Z,99870.53
2023-04-15T07:35:30.253Z,99870.44
2023-04-15T07:38:32.996Z,99870.16
2023-04-15T07:41:35.979Z,99861.69
2023-04-15T07:44:38.763Z,99866.19
2023-04-15T07:47:43.127Z,99878.41
2023-04-15T07:50:46.031Z,99875.16
2023-04-15T07:53:48.813Z,99878.22
2023-04-15T07:56:51.613Z,99875.44
2023-04-15T07:59:54.381Z,99877.81
2023-04-15T08:02:59.789Z,99877.44
2023-04-15T08:06:02.724Z,99880.34
2023-04-15T08:09:05.554Z,99880.47
2023-04-15T08:12:12.516Z,99883.84
2023-04-15T08:15:15.294Z,99886.06
2023-04-15T08:18:19.545Z,99879.16
2023-04-15T08:21:22.803Z,99886.72
2023-04-15T08:24:26.358Z,99876.59
2023-04-15T08:27:29.079Z,99885.56
2023-04-15T08:30:31.889Z,99885.41
2023-04-15T08:33:36.125Z,99883.22
2023-04-15T08:36:38.903Z,99875.94
2023-04-15T08:39:41.679Z,99886.59
2023-04-15T08:42:45.721Z,99887.06
2023-04-15T08:45:51.815Z,99883.53
2023-04-15T08:48:57.687Z,99884.81
2023-04-15T08:52:01.621Z,99882.94
2023-04-15T08:55:04.998Z,99876.66
2023-04-15T08:58:07.964Z,99892.63
2023-04-15T09:01:11.483Z,99884.63
2023-04-15T09:04:15.745Z,99895.16
2023-04-15T09:07:18.714Z,99899.38
2023-04-15T09:10:21.497Z,99899.38
2023-04-15T09:13:24.340Z,99904.97
2023-04-15T09:16:27.513Z,99902.19
2023-04-15T09:19:36.276Z,99903.59
2023-04-15T09:22:39.480Z,99910.19
2023-04-15T09:25:43.347Z,99909.53
2023-04-15T09:28:46.180Z,99904.75
2023-04-15T09:31:49.069Z,99912.91
2023-04-15T09:34:53.206Z,99899.44
2023-04-15T09:38:03.134Z,99888.78
2023-04-15T09:41:18.574Z,99885.00
2023-04-15T09:44:24.353Z,99895.66
2023-04-15T09:47:30.331Z,99893.72
2023-04-15T09:50:41.732Z,99890.81
2023-04-15T09:53:44.460Z,99895.66
2023-04-15T09:56:47.266Z,99893.28
2023-04-15T09:59:50.089Z,99906.59
2023-04-15T10:02:53.306Z,99906.94
2023-04-15T10:05:58.522Z,99912.19
2023-04-15T10:09:01.848Z,99907.72
2023-04-15T10:12:05.465Z,99906.94
2023-04-15T10:15:13.175Z,99915.78
2023-04-15T10:18:17.687Z,99910.81
2023-04-15T10:21:24.850Z,99907.56
2023-04-15T10:24:28.399Z,99910.69
2023-04-15T10:27:31.524Z,99915.78
2023-04-15T10:30:34.417Z,99921.25
2023-04-15T10:33:38.902Z,99926.06
2023-04-15T10:36:43.083Z,99927.59
2023-04-15T10:39:45.949Z,99925.91
2023-04-15T10:42:48.858Z,99912.72
2023-04-15T10:45:51.628Z,99921.28
2023-04-15T10:48:55.104Z,99919.75
2023-04-15T10:52:01.052Z,99916.25
2023-04-15T10:55:04.572Z,99906.22
2023-04-15T10:58:07.855Z,99917.09
2023-04-15T11:01:10.761Z,99917.09
2023-04-15T11:04:13.676Z,99920.00
2023-04-15T11:07:34.188Z,99926.19
2023-04-15T11:10:52.117Z,99938.28
2023-04-15T11:13:54.847Z,99928.25
2023-04-15T11:16:57.682Z,99923.78
2023-04-15T11:20:00.748Z,99924.47
2023-04-15T11:23:13.833Z,99926.28
2023-04-15T11:26:18.429Z,99923.78
2023-04-15T11:29:21.420Z,99928.13
2023-04-15T11:32:24.250Z,99929.88
2023-04-15T11:35:27.171Z,99928.72
2023-04-15T11:38:31.468Z,99924.75
2023-04-15T11:41:34.280Z,99926.56
2023-04-15T11:44:37.102Z,99921.09
2023-04-15T11:47:40.353Z,99923.91
2023-04-15T11:50:43.193Z,99925.31
2023-04-15T11:53:48.488Z,99931.91
2023-04-15T11:56:51.977Z,99930.06
2023-04-15T11:59:56.383Z,99934.03
2023-04-15T12:03:13.223Z,99929.94
2023-04-15T12:06:17.994Z,99921.09
2023-04-15T12:09:22.425Z,99932.09
2023-04-15T12:12:28.330Z,99926.38
2023-04-15T12:15:31.127Z,99927.59
2023-04-15T12:18:33.932Z,99928.97
2023-04-15T12:21:38.093Z,99929.09
2023-04-15T12:24:44.042Z,99930.66
2023-04-15T12:27:52.733Z,99934.88
2023-04-15T12:30:55.584Z,99935.03
2023-04-15T12:33:58.729Z,99933.44
2023-04-15T12:37:02.422Z,99940.34
2023-04-15T12:40:09.590Z,99931.38
2023-04-15T12:43:12.552Z,99941.44
2023-04-15T12:46:15.895Z,99932.13
2023-04-15T12:49:20.929Z,99929.69
2023-04-15T12:52:24.568Z,99931.09
2023-04-15T12:55:28.858Z,99937.41
2023-04-15T12:58:31.700Z,99931.25
2023-04-15T13:01:34.506Z,99935.44
2023-04-15T13:04:37.300Z,99934.03
2023-04-15T13:07:40.234Z,99923.25
2023-04-15T13:10:44.705Z,99928.59
2023-04-15T13:13:47.656Z,99932.19
2023-04-15T13:16:50.606Z,99928.06
2023-04-15T13:19:53.347Z,99942.75
2023-04-15T13:22:56.285Z,99940.59
2023-04-15T13:26:00.412Z,99933.44
2023-04-15T13:29:03.243Z,99931.16
2023-04-15T13:32:06.542Z,99936.56
2023-04-15T13:35:09.887Z,99938.00
2023-04-15T13:38:12.634Z,99934.88
2023-04-15T13:41:16.855Z,99938.72
2023-04-15T13:44:20.949Z,99946.56
2023-04-15T13:47:24.931Z,99950.91
2023-04-15T13:50:27.769Z,99951.91
2023-04-15T13:53:38.175Z,99952.88
2023-04-15T13:56:43.465Z,99949.09
2023-04-15T13:59:46.302Z,99952.38
2023-04-15T14:02:49.496Z,99948.66
2023-04-15T14:05:56.014Z,99954.25
2023-04-15T14:08:58.894Z,99948.41
2023-04-15T14:12:03.123Z,99945.28
2023-04-15T14:15:06.461Z,99943.00
2023-04-15T14:18:10.011Z,99949.44
2023-04-15T14:21:13.024Z,99947.50
2023-04-15T14:24:15.876Z,99943.25
2023-04-15T14:27:20.009Z,99947.88
2023-04-15T14:30:22.873Z,99946.16
2023-04-15T14:33:25.668Z,99945.22
2023-04-15T14:36:28.510Z,99933.69
2023-04-15T14:39:31.313Z,99946.63
2023-04-15T14:42:36.881Z,99946.06
2023-04-15T14:45:43.590Z,99943.25
2023-04-15T14:48:49.583Z,99949.56
2023-04-15T14:51:53.837Z,99946.91
2023-04-15T14:54:56.719Z,99943.41
2023-04-15T14:58:03.292Z,99950.16
2023-04-15T15:01:07.460Z,99956.91
2023-04-15T15:04:12.981Z,99954.50
2023-04-15T15:07:17.401Z,99952.03
2023-04-15T15:10:30.267Z,99951.72
2023-04-15T15:13:42.573Z,99951.19
2023-04-15T15:16:45.460Z,99955.09
2023-04-15T15:19:49.744Z,99952.94
2023-04-15T15:22:53.945Z,99940.72
2023-04-15T15:25:58.071Z,99944.94
2023-04-15T15:29:04.007Z,99940.72
2023-04-15T15:32:08.481Z,99955.00
2023-04-15T15:35:12.721Z,99943.41
2023-04-15T15:38:17.018Z,99950.06
2023-04-15T15:41:22.076Z,99951.59
2023-04-15T15:44:28.034Z,99953.31
2023-04-15T15:47:32.764Z,99966.41
2023-04-15T15:50:38.387Z,99968.06
2023-04-15T15:53:43.005Z,99964.19
2023-04-15T15:56:48.588Z,99966.44
2023-04-15T16:00:04.826Z,99970.69
2023-04-15T16:03:13.061Z,99976.25
2023-04-15T16:06:15.892Z,99980.75
2023-04-15T16:09:18.720Z,99989.53
2023-04-15T16:12:21.648Z,99981.22
2023-04-15T16:15:26.499Z,99995.03
2023-04-15T16:18:30.306Z,99994.59
2023-04-15T16:21:33.754Z,99998.97
2023-04-15T16:24:36.632Z,99999.91
2023-04-15T16:30:47.136Z,100004.31
2023-04-15T16:33:50.010Z,100006.81
2023-04-15T16:36:52.730Z,100016.66
2023-04-15T16:39:55.658Z,100016.50
2023-04-15T16:42:58.399Z,100022.81
2023-04-15T16:46:02.629Z,100028.28
2023-04-15T16:49:06.714Z,100026.56
2023-04-15T16:52:09.652Z,100021.97
2023-04-15T16:55:12.442Z,100022.22
2023-04-15T16:58:15.326Z,100027.53
2023-04-15T17:01:19.537Z,100032.78
2023-04-15T17:04:22.411Z,100032.03
2023-04-15T17:07:25.232Z,100032.16
2023-04-15T17:10:28.259Z,100047.88
2023-04-15T17:13:31.762Z,100054.09
2023-04-15T17:16:36.055Z,100059.28
2023-04-15T17:19:38.874Z,100061.94
2023-04-15T17:22:41.707Z,100071.88
2023-04-15T17:25:44.522Z,100084.50
2023-04-15T17:28:47.319Z,100086.91
2023-04-15T17:31:51.454Z,100089.44
2023-04-15T17:34:54.245Z,100093.78
2023-04-15T17:37:57.096Z,100085.81
2023-04-15T17:41:00.161Z,100097.34
2023-04-15T17:44:03.094Z,100089.13
2023-04-15T17:47:08.242Z,100102.53
2023-04-15T17:50:11.537Z,100093.94
2023-04-15T17:53:14.330Z,100089.47
2023-04-15T17:56:17.384Z,100093.34
2023-04-15T17:59:20.250Z,100102.25
2023-04-15T18:02:24.680Z,100108.31
2023-04-15T18:05:27.606Z,100104.81
2023-04-15T18:08:30.415Z,100116.53
2023-04-15T18:11:34.343Z,100107.22
2023-04-15T18:14:37.212Z,100103.56
2023-04-15T18:17:41.316Z,100105.25
2023-04-15T18:20:44.196Z,100112.06
2023-04-15T18:23:47.233Z,100106.38
2023-04-15T18:26:50.307Z,100115.72
2023-04-15T18:29:53.112Z,100118.44
2023-04-15T18:32:57.688Z,100126.22
2023-04-15T18:36:02.524Z,100125.50
2023-04-15T18:39:06.595Z,100131.31
2023-04-15T18:42:09.841Z,100129.00
2023-04-15T18:45:12.779Z,100136.16
2023-04-15T18:48:18.320Z,100135.59
2023-04-15T18:51:22.210Z,100134.75
2023-04-15T18:54:25.061Z,100141.63
2023-04-15T18:57:33.227Z,100136.28
2023-04-15T19:00:41.702Z,100135.44
2023-04-15T19:03:46.028Z,100132.78
2023-04-15T19:06:48.840Z,100135.44
2023-04-15T19:09:51.666Z,100132.53
2023-04-15T19:12:54.456Z,100130.13
2023-04-15T19:15:57.245Z,100123.97
2023-04-15T19:19:01.465Z,100120.19
2023-04-15T19:22:04.251Z,100130.47
2023-04-15T19:25:07.438Z,100132.44
2023-04-15T19:28:10.205Z,100133.28
2023-04-15T19:31:12.960Z,100129.75
2023-04-15T19:34:17.120Z,100139.66
2023-04-15T19:37:19.914Z,100143.19
2023-04-15T19:40:22.622Z,100140.78
2023-04-15T19:43:25.461Z,100131.69
2023-04-15T19:46:28.304Z,100126.75
2023-04-15T19:49:32.666Z,100131.47
2023-04-15T19:52:35.448Z,100142.00
2023-04-15T19:55:38.266Z,100136.44
2023-04-15T19:58:41.008Z,100149.75
2023-04-15T20:01:43.797Z,100143.56
2023-04-15T20:04:47.955Z,100153.25
2023-04-15T20:07:53.101Z,100146.34
2023-04-15T20:10:55.838Z,100157.00
2023-04-15T20:13:58.959Z,100154.59
2023-04-15T20:17:02.014Z,100145.00
2023-04-15T20:20:07.138Z,100145.84
2023-04-15T20:23:09.965Z,100139.66
2023-04-15T20:26:12.699Z,100144.16
2023-04-15T20:29:16.468Z,100138.13
2023-04-15T20:32:19.316Z,100154.44
2023-04-15T20:35:23.529Z,100151.78
2023-04-15T20:38:26.367Z,100154.59
2023-04-15T20:41:31.987Z,100152.25
2023-04-15T20:44:35.616Z,100152.66
2023-04-15T20:47:38.430Z,100148.16
2023-04-15T20:50:42.596Z,100159.91
2023-04-15T20:53:45.377Z,100162.81
2023-04-15T20:56:48.210Z,100158.81
2023-04-15T20:59:51.110Z,100147.31
2023-04-15T21:02:54.015Z,100153.97
2023-04-15T21:05:58.278Z,100157.88
2023-04-15T21:09:01.215Z,100153.25
2023-04-15T21:12:04.037Z,100159.66
2023-04-15T21:15:07.281Z,100167.53
2023-04-15T21:18:10.159Z,100170.31
2023-04-15T21:21:14.322Z,100171.06
2023-04-15T21:24:17.187Z,100168.63
2023-04-15T21:27:20.181Z,100170.56
2023-04-15T21:30:23.794Z,100177.44
2023-04-15T21:33:27.211Z,100181.22
2023-04-15T21:36:31.779Z,100185.56
2023-04-15T21:39:34.587Z,100180.03
2023-04-15T21:42:37.347Z,100175.63
2023-04-15T21:45:40.497Z,100176.59
2023-04-15T21:48:43.353Z,100167.78
2023-04-15T21:51:48.070Z,100158.94
2023-04-15T21:54:50.884Z,100154.22
2023-04-15T21:57:53.617Z,100143.44
2023-04-15T22:01:00.155Z,100143.44
2023-04-15T22:04:03.115Z,100147.81
2023-04-15T22:07:08.375Z,100137.91
2023-04-15T22:10:11.486Z,100138.75
2023-04-15T22:13:14.404Z,100130.88
2023-04-15T22:16:17.245Z,100129.06
2023-04-15T22:19:20.017Z,100131.81
2023-04-15T22:22:27.073Z,100136.31
2023-04-15T22:25:40.592Z,100132.94
2023-04-15T22:28:43.543Z,100139.81
2023-04-15T22:31:46.526Z,100133.78
2023-04-15T22:34:49.388Z,100129.44
2023-04-15T22:37:53.626Z,100138.13
2023-04-15T22:40:56.422Z,100131.81
2023-04-15T22:43:59.267Z,100137.28
2023-04-15T22:47:01.981Z,100144.28
2023-04-15T22:50:04.907Z,100146.72
2023-04-15T22:53:09.047Z,100149.41
2023-04-15T22:56:11.801Z,100150.25
2023-04-15T22:59:14.584Z,100158.94
2023-04-15T23:02:17.570Z,100163.41
2023-04-15T23:05:20.702Z,100169.72
2023-04-15T23:08:25.013Z,100168.66
2023-04-15T23:11:27.848Z,100172.38
2023-04-15T23:14:30.686Z,100177.59
2023-04-15T23:17:34.914Z,100183.53
2023-04-15T23:20:37.793Z,100181.97
2023-04-15T23:23:42.086Z,100187.53
2023-04-15T23:26:44.881Z,100182.59
2023-04-15T23:29:47.673Z,100190.44
2023-04-15T23:32:50.503Z,100192.84
2023-04-15T23:35:53.392Z,100188.50
2023-04-15T23:38:57.535Z,100197.31
2023-04-15T23:42:00.311Z,100212.47
2023-04-15T23:45:03.132Z,100213.16
2023-04-15T23:48:06.369Z,100215.59
2023-04-15T23:51:09.114Z,100219.34
2023-04-15T23:54:13.297Z,100214.91
2023-04-15T23:57:16.112Z,100223.81
